sensor_id;sensor_type;location;lat;lon;timestamp;pressure;altitude;pressure_sealevel;temperature;humidity
44441;BME280;30146;52.268;20.944;2023-01-27T00:01:57;100735.38;;;2.01;62.88
44441;BME280;30146;52.268;20.944;2023-01-27T00:04:28;100736.71;;;2.01;63.13
44441;BME280;30146;52.268;20.944;2023-01-27T00:06:59;100732.55;;;2.02;62.89
44441;BME280;30146;52.268;20.944;2023-01-27T00:09:30;100732.91;;;2.03;62.97
44441;BME280;30146;52.268;20.944;2023-01-27T00:12:01;100735.94;;;2.03;62.91
44441;BME280;30146;52.268;20.944;2023-01-27T00:14:52;100738.08;;;2.01;62.78
44441;BME280;30146;52.268;20.944;2023-01-27T00:17:23;100733.49;;;2.00;62.67
44441;BME280;30146;52.268;20.944;2023-01-27T00:19:54;100731.81;;;2.00;62.70
44441;BME280;30146;52.268;20.944;2023-01-27T00:22:25;100739.11;;;2.02;63.06
44441;BME280;30146;52.268;20.944;2023-01-27T00:25:14;100742.85;;;2.03;62.81
44441;BME280;30146;52.268;20.944;2023-01-27T00:27:45;100740.96;;;2.02;62.84
44441;BME280;30146;52.268;20.944;2023-01-27T00:30:16;100737.57;;;2.01;62.77
44441;BME280;30146;52.268;20.944;2023-01-27T00:32:48;100739.76;;;2.01;62.79
44441;BME280;30146;52.268;20.944;2023-01-27T00:35:37;100738.77;;;2.02;62.96
44441;BME280;30146;52.268;20.944;2023-01-27T00:38:08;100740.17;;;2.04;62.90
44441;BME280;30146;52.268;20.944;2023-01-27T00:40:39;100745.27;;;2.05;62.72
44441;BME280;30146;52.268;20.944;2023-01-27T00:43:30;100738.26;;;2.01;62.44
44441;BME280;30146;52.268;20.944;2023-01-27T00:46:01;100743.97;;;2.01;62.58
44441;BME280;30146;52.268;20.944;2023-01-27T00:48:32;100743.40;;;1.99;62.45
44441;BME280;30146;52.268;20.944;2023-01-27T00:51:05;100750.17;;;1.99;62.72
44441;BME280;30146;52.268;20.944;2023-01-27T00:53:36;100750.87;;;2.00;62.57
44441;BME280;30146;52.268;20.944;2023-01-27T00:56:08;100752.91;;;2.01;62.69
44441;BME280;30146;52.268;20.944;2023-01-27T00:58:40;100755.98;;;2.02;62.59
44441;BME280;30146;52.268;20.944;2023-01-27T01:01:13;100754.68;;;2.04;62.61
44441;BME280;30146;52.268;20.944;2023-01-27T01:03:45;100750.23;;;2.07;62.89
44441;BME280;30146;52.268;20.944;2023-01-27T01:06:18;100749.81;;;2.09;62.99
44441;BME280;30146;52.268;20.944;2023-01-27T01:08:50;100748.38;;;2.12;62.85
44441;BME280;30146;52.268;20.944;2023-01-27T01:11:21;100748.44;;;2.14;62.79
44441;BME280;30146;52.268;20.944;2023-01-27T01:13:53;100746.48;;;2.17;63.17
44441;BME280;30146;52.268;20.944;2023-01-27T01:16:25;100746.90;;;2.19;62.91
44441;BME280;30146;52.268;20.944;2023-01-27T01:18:58;100748.80;;;2.20;62.89
44441;BME280;30146;52.268;20.944;2023-01-27T01:21:29;100751.77;;;2.24;62.83
44441;BME280;30146;52.268;20.944;2023-01-27T01:24:00;100755.38;;;2.26;62.96
44441;BME280;30146;52.268;20.944;2023-01-27T01:26:31;100754.45;;;2.28;63.25
44441;BME280;30146;52.268;20.944;2023-01-27T01:29:02;100753.33;;;2.30;63.04
44441;BME280;30146;52.268;20.944;2023-01-27T01:31:33;100753.09;;;2.34;63.35
44441;BME280;30146;52.268;20.944;2023-01-27T01:34:05;100748.10;;;2.36;63.25
44441;BME280;30146;52.268;20.944;2023-01-27T01:36:36;100748.99;;;2.38;62.89
44441;BME280;30146;52.268;20.944;2023-01-27T01:39:07;100750.19;;;2.38;63.09
44441;BME280;30146;52.268;20.944;2023-01-27T01:41:38;100750.19;;;2.38;62.98
44441;BME280;30146;52.268;20.944;2023-01-27T01:44:23;100751.23;;;2.39;62.67
44441;BME280;30146;52.268;20.944;2023-01-27T01:46:55;100749.70;;;2.39;63.01
44441;BME280;30146;52.268;20.944;2023-01-27T01:49:28;100750.05;;;2.40;62.87
44441;BME280;30146;52.268;20.944;2023-01-27T01:52:06;100752.60;;;2.40;63.16
44441;BME280;30146;52.268;20.944;2023-01-27T01:54:41;100750.75;;;2.40;62.70
44441;BME280;30146;52.268;20.944;2023-01-27T01:57:16;100753.45;;;2.40;62.81
44441;BME280;30146;52.268;20.944;2023-01-27T01:59:54;100751.26;;;2.40;62.59
44441;BME280;30146;52.268;20.944;2023-01-27T02:02:28;100751.29;;;2.41;62.95
44441;BME280;30146;52.268;20.944;2023-01-27T02:05:03;100750.27;;;2.41;62.76
44441;BME280;30146;52.268;20.944;2023-01-27T02:07:41;100748.04;;;2.40;62.72
44441;BME280;30146;52.268;20.944;2023-01-27T02:10:16;100746.09;;;2.37;62.43
44441;BME280;30146;52.268;20.944;2023-01-27T02:12:47;100747.36;;;2.34;62.67
44441;BME280;30146;52.268;20.944;2023-01-27T02:15:18;100751.20;;;2.33;62.50
44441;BME280;30146;52.268;20.944;2023-01-27T02:17:50;100754.89;;;2.32;62.48
44441;BME280;30146;52.268;20.944;2023-01-27T02:20:30;100755.89;;;2.32;62.44
44441;BME280;30146;52.268;20.944;2023-01-27T02:23:12;100752.14;;;2.30;62.52
44441;BME280;30146;52.268;20.944;2023-01-27T02:25:55;100749.26;;;2.29;62.29
44441;BME280;30146;52.268;20.944;2023-01-27T02:28:28;100750.03;;;2.27;62.33
44441;BME280;30146;52.268;20.944;2023-01-27T02:31:00;100748.41;;;2.24;62.20
44441;BME280;30146;52.268;20.944;2023-01-27T02:33:31;100753.35;;;2.20;62.43
44441;BME280;30146;52.268;20.944;2023-01-27T02:36:05;100753.89;;;2.16;62.19
44441;BME280;30146;52.268;20.944;2023-01-27T02:38:39;100759.06;;;2.14;62.24
44441;BME280;30146;52.268;20.944;2023-01-27T02:41:16;100755.79;;;2.11;62.10
44441;BME280;30146;52.268;20.944;2023-01-27T02:43:51;100752.85;;;2.10;62.47
44441;BME280;30146;52.268;20.944;2023-01-27T02:46:23;100748.66;;;2.10;62.45
44441;BME280;30146;52.268;20.944;2023-01-27T02:48:54;100749.90;;;2.13;62.75
44441;BME280;30146;52.268;20.944;2023-01-27T02:51:25;100755.31;;;2.13;62.74
44441;BME280;30146;52.268;20.944;2023-01-27T02:53:56;100755.20;;;2.15;62.63
44441;BME280;30146;52.268;20.944;2023-01-27T02:56:27;100753.55;;;2.16;62.56
44441;BME280;30146;52.268;20.944;2023-01-27T02:58:58;100750.51;;;2.16;62.54
44441;BME280;30146;52.268;20.944;2023-01-27T03:01:38;100755.23;;;2.15;62.30
44441;BME280;30146;52.268;20.944;2023-01-27T03:04:10;100754.16;;;2.14;62.40
44441;BME280;30146;52.268;20.944;2023-01-27T03:06:41;100754.33;;;2.14;62.38
44441;BME280;30146;52.268;20.944;2023-01-27T03:09:12;100753.80;;;2.13;62.10
44441;BME280;30146;52.268;20.944;2023-01-27T03:11:43;100753.62;;;2.13;62.26
44441;BME280;30146;52.268;20.944;2023-01-27T03:14:32;100757.58;;;2.15;62.37
44441;BME280;30146;52.268;20.944;2023-01-27T03:17:21;100756.23;;;2.16;62.45
44441;BME280;30146;52.268;20.944;2023-01-27T03:20:12;100754.54;;;2.16;62.18
44441;BME280;30146;52.268;20.944;2023-01-27T03:22:43;100753.81;;;2.14;61.82
44441;BME280;30146;52.268;20.944;2023-01-27T03:25:17;100760.98;;;2.10;61.92
44441;BME280;30146;52.268;20.944;2023-01-27T03:27:49;100761.70;;;2.13;62.24
44441;BME280;30146;52.268;20.944;2023-01-27T03:30:25;100757.16;;;2.13;61.99
44441;BME280;30146;52.268;20.944;2023-01-27T03:33:06;100760.00;;;2.12;61.86
44441;BME280;30146;52.268;20.944;2023-01-27T03:35:57;100764.27;;;2.08;61.77
44441;BME280;30146;52.268;20.944;2023-01-27T03:38:51;100766.55;;;2.06;61.64
44441;BME280;30146;52.268;20.944;2023-01-27T03:41:40;100763.63;;;2.04;61.58
44441;BME280;30146;52.268;20.944;2023-01-27T03:44:29;100760.92;;;2.04;61.84
44441;BME280;30146;52.268;20.944;2023-01-27T03:47:17;100762.25;;;2.03;61.79
44441;BME280;30146;52.268;20.944;2023-01-27T03:49:49;100765.34;;;2.05;62.13
44441;BME280;30146;52.268;20.944;2023-01-27T03:52:20;100766.75;;;2.06;62.00
44441;BME280;30146;52.268;20.944;2023-01-27T03:54:51;100765.93;;;2.07;62.15
44441;BME280;30146;52.268;20.944;2023-01-27T03:57:22;100767.35;;;2.09;62.09
44441;BME280;30146;52.268;20.944;2023-01-27T03:59:53;100765.55;;;2.12;62.14
44441;BME280;30146;52.268;20.944;2023-01-27T04:02:24;100767.33;;;2.14;62.09
44441;BME280;30146;52.268;20.944;2023-01-27T04:05:12;100775.31;;;2.17;62.07
44441;BME280;30146;52.268;20.944;2023-01-27T04:08:01;100773.71;;;2.19;61.96
44441;BME280;30146;52.268;20.944;2023-01-27T04:10:34;100771.08;;;2.21;62.17
44441;BME280;30146;52.268;20.944;2023-01-27T04:13:05;100775.67;;;2.22;61.76
44441;BME280;30146;52.268;20.944;2023-01-27T04:15:36;100777.05;;;2.23;61.76
44441;BME280;30146;52.268;20.944;2023-01-27T04:18:07;100781.09;;;2.23;61.98
44441;BME280;30146;52.268;20.944;2023-01-27T04:20:38;100782.81;;;2.24;61.77
44441;BME280;30146;52.268;20.944;2023-01-27T04:23:09;100785.91;;;2.26;61.86
44441;BME280;30146;52.268;20.944;2023-01-27T04:25:40;100782.38;;;2.27;61.70
44441;BME280;30146;52.268;20.944;2023-01-27T04:28:12;100781.58;;;2.28;61.80
44441;BME280;30146;52.268;20.944;2023-01-27T04:30:43;100783.27;;;2.28;61.68
44441;BME280;30146;52.268;20.944;2023-01-27T04:33:14;100782.80;;;2.29;61.87
44441;BME280;30146;52.268;20.944;2023-01-27T04:35:45;100781.07;;;2.28;61.64
44441;BME280;30146;52.268;20.944;2023-01-27T04:38:16;100782.25;;;2.27;61.64
44441;BME280;30146;52.268;20.944;2023-01-27T04:40:47;100779.39;;;2.28;61.47
44441;BME280;30146;52.268;20.944;2023-01-27T04:43:18;100779.43;;;2.29;61.81
44441;BME280;30146;52.268;20.944;2023-01-27T04:45:49;100780.61;;;2.29;61.71
44441;BME280;30146;52.268;20.944;2023-01-27T04:48:20;100782.29;;;2.29;61.65
44441;BME280;30146;52.268;20.944;2023-01-27T04:50:51;100789.55;;;2.29;61.75
44441;BME280;30146;52.268;20.944;2023-01-27T04:53:22;100786.50;;;2.28;61.39
44441;BME280;30146;52.268;20.944;2023-01-27T04:55:59;100790.23;;;2.29;61.72
44441;BME280;30146;52.268;20.944;2023-01-27T04:58:31;100794.64;;;2.30;61.85
44441;BME280;30146;52.268;20.944;2023-01-27T05:01:02;100799.89;;;2.30;61.88
44441;BME280;30146;52.268;20.944;2023-01-27T05:03:33;100797.86;;;2.30;61.88
44441;BME280;30146;52.268;20.944;2023-01-27T05:06:05;100799.60;;;2.32;61.68
44441;BME280;30146;52.268;20.944;2023-01-27T05:08:36;100799.89;;;2.31;61.72
44441;BME280;30146;52.268;20.944;2023-01-27T05:11:07;100803.16;;;2.33;61.76
44441;BME280;30146;52.268;20.944;2023-01-27T05:13:39;100803.67;;;2.33;61.64
44441;BME280;30146;52.268;20.944;2023-01-27T05:16:13;100804.68;;;2.33;61.50
44441;BME280;30146;52.268;20.944;2023-01-27T05:18:46;100804.00;;;2.33;61.62
44441;BME280;30146;52.268;20.944;2023-01-27T05:21:20;100806.78;;;2.36;61.52
44441;BME280;30146;52.268;20.944;2023-01-27T05:23:52;100810.50;;;2.36;61.70
44441;BME280;30146;52.268;20.944;2023-01-27T05:26:24;100812.00;;;2.35;61.70
44441;BME280;30146;52.268;20.944;2023-01-27T05:28:57;100818.42;;;2.36;61.64
44441;BME280;30146;52.268;20.944;2023-01-27T05:31:29;100819.42;;;2.35;61.54
44441;BME280;30146;52.268;20.944;2023-01-27T05:34:01;100822.29;;;2.35;61.56
44441;BME280;30146;52.268;20.944;2023-01-27T05:36:33;100819.22;;;2.34;61.76
44441;BME280;30146;52.268;20.944;2023-01-27T05:39:04;100820.90;;;2.34;62.01
44441;BME280;30146;52.268;20.944;2023-01-27T05:41:37;100825.23;;;2.32;61.80
44441;BME280;30146;52.268;20.944;2023-01-27T05:44:10;100829.66;;;2.33;61.97
44441;BME280;30146;52.268;20.944;2023-01-27T05:46:42;100826.25;;;2.32;62.16
44441;BME280;30146;52.268;20.944;2023-01-27T05:49:14;100825.05;;;2.31;61.96
44441;BME280;30146;52.268;20.944;2023-01-27T05:51:45;100824.17;;;2.30;61.99
44441;BME280;30146;52.268;20.944;2023-01-27T05:54:15;100823.45;;;2.29;62.06
44441;BME280;30146;52.268;20.944;2023-01-27T05:56:47;100827.65;;;2.28;62.08
44441;BME280;30146;52.268;20.944;2023-01-27T05:59:18;100827.93;;;2.27;62.39
44441;BME280;30146;52.268;20.944;2023-01-27T06:01:49;100829.36;;;2.24;62.09
44441;BME280;30146;52.268;20.944;2023-01-27T06:04:20;100831.00;;;2.22;62.08
44441;BME280;30146;52.268;20.944;2023-01-27T06:06:51;100832.23;;;2.19;61.92
44441;BME280;30146;52.268;20.944;2023-01-27T06:09:23;100837.40;;;2.17;62.19
44441;BME280;30146;52.268;20.944;2023-01-27T06:11:54;100844.44;;;2.16;62.00
44441;BME280;30146;52.268;20.944;2023-01-27T06:14:25;100846.13;;;2.16;62.40
44441;BME280;30146;52.268;20.944;2023-01-27T06:16:56;100852.83;;;2.14;62.33
44441;BME280;30146;52.268;20.944;2023-01-27T06:19:29;100857.20;;;2.14;62.05
44441;BME280;30146;52.268;20.944;2023-01-27T06:22:00;100859.71;;;2.14;62.33
44441;BME280;30146;52.268;20.944;2023-01-27T06:24:32;100864.09;;;2.13;62.34
44441;BME280;30146;52.268;20.944;2023-01-27T06:27:03;100864.88;;;2.11;62.21
44441;BME280;30146;52.268;20.944;2023-01-27T06:29:34;100870.06;;;2.10;62.14
44441;BME280;30146;52.268;20.944;2023-01-27T06:32:05;100873.08;;;2.10;62.49
44441;BME280;30146;52.268;20.944;2023-01-27T06:34:36;100875.27;;;2.09;62.57
44441;BME280;30146;52.268;20.944;2023-01-27T06:37:07;100876.63;;;2.09;62.92
44441;BME280;30146;52.268;20.944;2023-01-27T06:39:38;100877.80;;;2.10;63.07
44441;BME280;30146;52.268;20.944;2023-01-27T06:42:09;100878.66;;;2.10;62.96
44441;BME280;30146;52.268;20.944;2023-01-27T06:44:40;100880.49;;;2.09;63.06
44441;BME280;30146;52.268;20.944;2023-01-27T06:47:11;100879.14;;;2.09;63.06
44441;BME280;30146;52.268;20.944;2023-01-27T06:49:43;100883.52;;;2.09;63.17
44441;BME280;30146;52.268;20.944;2023-01-27T06:52:13;100883.52;;;2.09;63.23
44441;BME280;30146;52.268;20.944;2023-01-27T06:54:44;100881.58;;;2.11;63.24
44441;BME280;30146;52.268;20.944;2023-01-27T06:57:15;100882.00;;;2.14;63.29
44441;BME280;30146;52.268;20.944;2023-01-27T06:59:46;100886.42;;;2.16;63.32
44441;BME280;30146;52.268;20.944;2023-01-27T07:02:17;100889.50;;;2.17;63.03
44441;BME280;30146;52.268;20.944;2023-01-27T07:04:48;100886.01;;;2.18;63.34
44441;BME280;30146;52.268;20.944;2023-01-27T07:07:19;100883.69;;;2.19;63.26
44441;BME280;30146;52.268;20.944;2023-01-27T07:09:50;100886.09;;;2.20;63.43
44441;BME280;30146;52.268;20.944;2023-01-27T07:12:21;100885.52;;;2.23;63.47
44441;BME280;30146;52.268;20.944;2023-01-27T07:14:52;100889.92;;;2.24;63.14
44441;BME280;30146;52.268;20.944;2023-01-27T07:17:24;100888.27;;;2.25;63.54
44441;BME280;30146;52.268;20.944;2023-01-27T07:19:55;100886.17;;;2.28;63.46
44441;BME280;30146;52.268;20.944;2023-01-27T07:22:26;100886.58;;;2.30;63.18
44441;BME280;30146;52.268;20.944;2023-01-27T07:24:58;100890.04;;;2.33;63.22
44441;BME280;30146;52.268;20.944;2023-01-27T07:27:29;100890.92;;;2.34;63.28
44441;BME280;30146;52.268;20.944;2023-01-27T07:30:00;100896.73;;;2.36;63.22
44441;BME280;30146;52.268;20.944;2023-01-27T07:32:32;100897.52;;;2.40;63.09
44441;BME280;30146;52.268;20.944;2023-01-27T07:35:03;100896.23;;;2.41;63.24
44441;BME280;30146;52.268;20.944;2023-01-27T07:37:35;100889.70;;;2.43;63.12
44441;BME280;30146;52.268;20.944;2023-01-27T07:40:14;100891.42;;;2.44;62.91
44441;BME280;30146;52.268;20.944;2023-01-27T07:42:45;100890.91;;;2.44;63.04
44441;BME280;30146;52.268;20.944;2023-01-27T07:45:17;100891.84;;;2.41;62.98
44441;BME280;30146;52.268;20.944;2023-01-27T07:47:49;100891.91;;;2.43;62.92
44441;BME280;30146;52.268;20.944;2023-01-27T07:50:20;100895.66;;;2.45;62.99
44441;BME280;30146;52.268;20.944;2023-01-27T07:52:51;100895.76;;;2.47;63.10
44441;BME280;30146;52.268;20.944;2023-01-27T07:55:22;100894.73;;;2.48;62.73
44441;BME280;30146;52.268;20.944;2023-01-27T07:57:54;100900.68;;;2.43;62.58
44441;BME280;30146;52.268;20.944;2023-01-27T08:00:28;100904.23;;;2.39;62.47
44441;BME280;30146;52.268;20.944;2023-01-27T08:03:00;100903.01;;;2.32;62.30
44441;BME280;30146;52.268;20.944;2023-01-27T08:05:33;100899.08;;;2.25;62.00
44441;BME280;30146;52.268;20.944;2023-01-27T08:08:07;100902.31;;;2.21;62.31
44441;BME280;30146;52.268;20.944;2023-01-27T08:10:38;100900.14;;;2.22;62.25
44441;BME280;30146;52.268;20.944;2023-01-27T08:13:09;100903.21;;;2.23;62.39
44441;BME280;30146;52.268;20.944;2023-01-27T08:15:40;100898.45;;;2.27;62.53
44441;BME280;30146;52.268;20.944;2023-01-27T08:18:11;100899.65;;;2.33;62.71
44441;BME280;30146;52.268;20.944;2023-01-27T08:20:42;100898.80;;;2.43;62.95
44441;BME280;30146;52.268;20.944;2023-01-27T08:23:14;100898.09;;;2.52;62.67
44441;BME280;30146;52.268;20.944;2023-01-27T08:25:50;100904.36;;;2.59;62.38
44441;BME280;30146;52.268;20.944;2023-01-27T08:28:23;100907.80;;;2.60;62.25
44441;BME280;30146;52.268;20.944;2023-01-27T08:30:54;100910.02;;;2.61;62.08
44441;BME280;30146;52.268;20.944;2023-01-27T08:33:32;100908.16;;;2.67;62.32
44441;BME280;30146;52.268;20.944;2023-01-27T08:36:06;100909.66;;;2.77;62.44
44441;BME280;30146;52.268;20.944;2023-01-27T08:38:38;100911.02;;;2.88;62.29
44441;BME280;30146;52.268;20.944;2023-01-27T08:41:11;100915.70;;;2.97;62.09
44441;BME280;30146;52.268;20.944;2023-01-27T08:43:43;100913.91;;;3.05;61.90
44441;BME280;30146;52.268;20.944;2023-01-27T08:46:14;100914.35;;;3.15;61.67
44441;BME280;30146;52.268;20.944;2023-01-27T08:48:45;100915.95;;;3.22;62.09
44441;BME280;30146;52.268;20.944;2023-01-27T08:51:17;100917.41;;;3.32;61.89
44441;BME280;30146;52.268;20.944;2023-01-27T08:53:48;100921.09;;;3.42;61.80
44441;BME280;30146;52.268;20.944;2023-01-27T08:56:19;100923.81;;;3.49;61.40
44441;BME280;30146;52.268;20.944;2023-01-27T08:58:53;100924.33;;;3.55;61.31
44441;BME280;30146;52.268;20.944;2023-01-27T09:01:25;100927.02;;;3.60;61.08
44441;BME280;30146;52.268;20.944;2023-01-27T09:03:57;100928.50;;;3.65;60.84
44441;BME280;30146;52.268;20.944;2023-01-27T09:06:28;100929.58;;;3.67;60.78
44441;BME280;30146;52.268;20.944;2023-01-27T09:08:59;100932.35;;;3.70;60.77
44441;BME280;30146;52.268;20.944;2023-01-27T09:11:42;100931.96;;;3.74;60.67
44441;BME280;30146;52.268;20.944;2023-01-27T09:14:15;100931.91;;;3.79;60.49
44441;BME280;30146;52.268;20.944;2023-01-27T09:16:47;100928.27;;;3.81;60.34
44441;BME280;30146;52.268;20.944;2023-01-27T09:19:18;100928.22;;;3.86;60.54
44441;BME280;30146;52.268;20.944;2023-01-27T09:21:49;100924.56;;;3.94;60.48
44441;BME280;30146;52.268;20.944;2023-01-27T09:24:20;100919.81;;;3.99;60.08
44441;BME280;30146;52.268;20.944;2023-01-27T09:26:51;100914.42;;;4.07;60.20
44441;BME280;30146;52.268;20.944;2023-01-27T09:29:23;100918.43;;;4.18;60.08
44441;BME280;30146;52.268;20.944;2023-01-27T09:31:54;100921.09;;;4.30;59.63
44441;BME280;30146;52.268;20.944;2023-01-27T09:34:25;100921.36;;;4.41;59.87
44441;BME280;30146;52.268;20.944;2023-01-27T09:36:58;100916.62;;;4.48;59.44
44441;BME280;30146;52.268;20.944;2023-01-27T09:39:32;100914.95;;;4.55;59.44
44441;BME280;30146;52.268;20.944;2023-01-27T09:42:20;100918.24;;;4.65;59.21
44441;BME280;30146;52.268;20.944;2023-01-27T09:51:03;100915.38;;;5.03;59.16
44441;BME280;30146;52.268;20.944;2023-01-27T09:53:58;100914.48;;;5.16;58.96
44441;BME280;30146;52.268;20.944;2023-01-27T09:56:41;100917.96;;;5.28;58.59
44441;BME280;30146;52.268;20.944;2023-01-27T09:59:26;100919.43;;;5.34;58.21
44441;BME280;30146;52.268;20.944;2023-01-27T10:02:12;100921.35;;;5.36;58.02
44441;BME280;30146;52.268;20.944;2023-01-27T10:05:00;100916.97;;;5.37;57.73
44441;BME280;30146;52.268;20.944;2023-01-27T10:10:34;100918.56;;;5.33;57.85
44441;BME280;30146;52.268;20.944;2023-01-27T10:13:19;100918.54;;;5.31;57.88
44441;BME280;30146;52.268;20.944;2023-01-27T10:16:04;100918.79;;;5.28;57.33
44441;BME280;30146;52.268;20.944;2023-01-27T10:18:50;100921.98;;;5.25;57.61
44441;BME280;30146;52.268;20.944;2023-01-27T10:21:34;100921.20;;;5.22;57.32
44441;BME280;30146;52.268;20.944;2023-01-27T10:24:18;100923.80;;;5.16;57.46
44441;BME280;30146;52.268;20.944;2023-01-27T10:26:57;100926.71;;;5.10;57.33
44441;BME280;30146;52.268;20.944;2023-01-27T10:29:34;100931.47;;;5.02;57.16
44441;BME280;30146;52.268;20.944;2023-01-27T10:32:10;100933.52;;;4.96;57.35
44441;BME280;30146;52.268;20.944;2023-01-27T10:34:51;100938.25;;;4.88;57.33
44441;BME280;30146;52.268;20.944;2023-01-27T10:37:27;100941.11;;;4.80;57.21
44441;BME280;30146;52.268;20.944;2023-01-27T10:40:07;100944.11;;;4.71;57.13
44441;BME280;30146;52.268;20.944;2023-01-27T10:42:48;100949.46;;;4.61;57.19
44441;BME280;30146;52.268;20.944;2023-01-27T10:45:29;100956.90;;;4.54;57.30
44441;BME280;30146;52.268;20.944;2023-01-27T10:50:59;100951.38;;;4.42;57.44
44441;BME280;30146;52.268;20.944;2023-01-27T10:53:39;100956.06;;;4.40;57.62
44441;BME280;30146;52.268;20.944;2023-01-27T10:56:16;100957.10;;;4.35;57.72
44441;BME280;30146;52.268;20.944;2023-01-27T10:58:58;100955.79;;;4.30;57.77
44441;BME280;30146;52.268;20.944;2023-01-27T11:01:36;100959.12;;;4.21;57.57
44441;BME280;30146;52.268;20.944;2023-01-27T11:04:12;100960.71;;;4.12;57.58
44441;BME280;30146;52.268;20.944;2023-01-27T11:06:45;100963.05;;;4.04;57.62
44441;BME280;30146;52.268;20.944;2023-01-27T11:09:25;100961.64;;;3.96;57.94
44441;BME280;30146;52.268;20.944;2023-01-27T11:12:00;100959.13;;;3.90;58.01
44441;BME280;30146;52.268;20.944;2023-01-27T11:14:36;100951.39;;;3.85;58.04
44441;BME280;30146;52.268;20.944;2023-01-27T11:17:16;100944.52;;;3.82;58.09
44441;BME280;30146;52.268;20.944;2023-01-27T11:19:57;100942.42;;;3.79;58.28
44441;BME280;30146;52.268;20.944;2023-01-27T11:22:36;100937.83;;;3.78;58.43
44441;BME280;30146;52.268;20.944;2023-01-27T11:25:21;100934.77;;;3.77;58.46
44441;BME280;30146;52.268;20.944;2023-01-27T11:28:27;100928.13;;;3.76;58.61
44441;BME280;30146;52.268;20.944;2023-01-27T11:31:06;100932.58;;;3.78;58.96
44441;BME280;30146;52.268;20.944;2023-01-27T11:33:49;100931.94;;;3.79;58.60
44441;BME280;30146;52.268;20.944;2023-01-27T11:36:26;100935.34;;;3.80;58.94
44441;BME280;30146;52.268;20.944;2023-01-27T11:38:58;100933.64;;;3.79;58.98
44441;BME280;30146;52.268;20.944;2023-01-27T11:41:32;100932.11;;;3.79;59.04
44441;BME280;30146;52.268;20.944;2023-01-27T11:44:07;100933.44;;;3.78;59.02
44441;BME280;30146;52.268;20.944;2023-01-27T11:46:42;100929.48;;;3.76;59.01
44441;BME280;30146;52.268;20.944;2023-01-27T11:49:17;100929.10;;;3.74;58.89
44441;BME280;30146;52.268;20.944;2023-01-27T11:51:50;100929.95;;;3.74;59.17
44441;BME280;30146;52.268;20.944;2023-01-27T11:54:24;100931.47;;;3.74;59.19
44441;BME280;30146;52.268;20.944;2023-01-27T11:56:57;100931.44;;;3.73;59.21
44441;BME280;30146;52.268;20.944;2023-01-27T11:59:32;100927.16;;;3.72;59.16
44441;BME280;30146;52.268;20.944;2023-01-27T12:02:20;100925.30;;;3.72;59.47
44441;BME280;30146;52.268;20.944;2023-01-27T12:04:56;100930.42;;;3.73;59.55
44441;BME280;30146;52.268;20.944;2023-01-27T12:07:38;100926.80;;;3.77;59.47
44441;BME280;30146;52.268;20.944;2023-01-27T12:10:27;100927.62;;;3.82;59.60
44441;BME280;30146;52.268;20.944;2023-01-27T12:13:06;100922.25;;;3.83;59.50
44441;BME280;30146;52.268;20.944;2023-01-27T12:15:47;100923.58;;;3.82;59.68
44441;BME280;30146;52.268;20.944;2023-01-27T12:18:19;100926.61;;;3.82;59.38
44441;BME280;30146;52.268;20.944;2023-01-27T12:20:59;100924.63;;;3.84;59.52
44441;BME280;30146;52.268;20.944;2023-01-27T12:23:32;100926.87;;;3.86;59.59
44441;BME280;30146;52.268;20.944;2023-01-27T12:26:05;100927.09;;;3.87;59.74
44441;BME280;30146;52.268;20.944;2023-01-27T12:28:40;100922.63;;;3.91;59.63
44441;BME280;30146;52.268;20.944;2023-01-27T12:31:14;100924.45;;;3.90;59.61
44441;BME280;30146;52.268;20.944;2023-01-27T12:33:57;100922.55;;;3.89;59.74
44441;BME280;30146;52.268;20.944;2023-01-27T12:36:34;100922.02;;;3.88;59.56
44441;BME280;30146;52.268;20.944;2023-01-27T12:39:08;100919.46;;;3.87;59.75
44441;BME280;30146;52.268;20.944;2023-01-27T12:41:54;100921.29;;;3.85;59.96
44441;BME280;30146;52.268;20.944;2023-01-27T12:44:25;100923.09;;;3.83;60.11
44441;BME280;30146;52.268;20.944;2023-01-27T12:47:22;100922.25;;;3.83;60.22
44441;BME280;30146;52.268;20.944;2023-01-27T12:50:18;100924.97;;;3.84;60.38
44441;BME280;30146;52.268;20.944;2023-01-27T12:53:08;100926.11;;;3.82;60.19
44441;BME280;30146;52.268;20.944;2023-01-27T12:55:45;100928.62;;;3.82;60.79
44441;BME280;30146;52.268;20.944;2023-01-27T12:58:31;100931.63;;;3.80;60.54
44441;BME280;30146;52.268;20.944;2023-01-27T13:01:06;100933.71;;;3.76;60.77
44441;BME280;30146;52.268;20.944;2023-01-27T13:03:51;100933.48;;;3.74;60.86
44441;BME280;30146;52.268;20.944;2023-01-27T13:06:35;100932.08;;;3.72;61.31
44441;BME280;30146;52.268;20.944;2023-01-27T13:09:29;100931.96;;;3.68;61.23
44441;BME280;30146;52.268;20.944;2023-01-27T13:12:17;100937.36;;;3.67;61.58
44441;BME280;30146;52.268;20.944;2023-01-27T13:14:52;100938.61;;;3.70;61.77
44441;BME280;30146;52.268;20.944;2023-01-27T13:17:34;100933.27;;;3.73;61.58
44441;BME280;30146;52.268;20.944;2023-01-27T13:20:13;100929.54;;;3.72;61.70
44441;BME280;30146;52.268;20.944;2023-01-27T13:22:48;100925.13;;;3.72;61.74
44441;BME280;30146;52.268;20.944;2023-01-27T13:25:22;100929.64;;;3.70;61.86
44441;BME280;30146;52.268;20.944;2023-01-27T13:27:58;100929.91;;;3.67;61.73
44441;BME280;30146;52.268;20.944;2023-01-27T13:30:40;100933.91;;;3.65;61.74
44441;BME280;30146;52.268;20.944;2023-01-27T13:33:34;100936.51;;;3.61;61.79
44441;BME280;30146;52.268;20.944;2023-01-27T13:37:00;100936.98;;;3.54;61.66
44441;BME280;30146;52.268;20.944;2023-01-27T13:39:53;100935.60;;;3.47;61.96
44441;BME280;30146;52.268;20.944;2023-01-27T13:42:37;100935.76;;;3.41;62.07
44441;BME280;30146;52.268;20.944;2023-01-27T13:45:15;100937.02;;;3.38;62.27